This is the latest recevied weather packets stored in our database for station/object W8CEN. If no packets are shown the sender has not sent any weather packets the latest 10 day(s).
| Time | Temp. | Humidity | Pressure | Rain* | Wind** | Luminosity | Snow |
|---|---|---|---|---|---|---|---|
| 1777310744 | 22.22° C | 56% | 995.5 hPa | 0 mm | - | 786 W/m² | - |
| 1777309534 | 21.67° C | 57% | 995.6 hPa | 0 mm | - | 648 W/m² | - |
| 1777308929 | 21.11° C | 60% | 995.5 hPa | 0 mm | - | 781 W/m² | - |
| 1777307410 | 20.56° C | 57% | 995.9 hPa | 0 mm | - | 694 W/m² | - |
| 1777306805 | 20° C | 58% | 996.1 hPa | 0 mm | - | 630 W/m² | - |
| 1777306502 | 19.44° C | 60% | 996.4 hPa | 0 mm | - | 715 W/m² | - |
| 1777306197 | 19.44° C | 62% | 996.4 hPa | 0 mm | - | 702 W/m² | - |
| 1777305589 | 18.89° C | 59% | 996.5 hPa | 0 mm | - | 628 W/m² | - |
| 1777304984 | 18.33° C | 63% | 996.8 hPa | 0 mm | - | 566 W/m² | - |
| 1777304378 | 18.33° C | 63% | 996.7 hPa | 0 mm | - | 593 W/m² | - |
| 1777304075 | 18.33° C | 63% | 996.6 hPa | 0 mm | - | 580 W/m² | - |
| 1777303772 | 17.78° C | 63% | 996.3 hPa | 0 mm | - | 590 W/m² | - |
| 1777303469 | 17.78° C | 64% | 996.3 hPa | 0 mm | - | 587 W/m² | - |
| 1777302260 | 17.78° C | 62% | 997.2 hPa | 0 mm | - | 599 W/m² | - |
| 1777301655 | 17.78° C | 64% | 997.4 hPa | 0 mm | - | 596 W/m² | - |
| 1777301048 | 17.78° C | 63% | 997.8 hPa | 0 mm | - | 632 W/m² | - |
| 1777300745 | 17.22° C | 63% | 997.8 hPa | 0 mm | - | 578 W/m² | - |
| 1777300443 | 17.22° C | 63% | 997.7 hPa | 0 mm | - | 562 W/m² | - |
| 1777300140 | 16.67° C | 66% | 997.8 hPa | 0 mm | - | 525 W/m² | - |
| 1777299836 | 16.67° C | 65% | 998 hPa | 0 mm | - | 499 W/m² | - |
| 1777299534 | 16.11° C | 66% | 998 hPa | 0 mm | - | 467 W/m² | - |
| 1777299232 | 15.56° C | 68% | 998.1 hPa | 0 mm | - | 462 W/m² | - |
| 1777298626 | 15.56° C | 67% | 998.3 hPa | 0 mm | - | 445 W/m² | - |
| 1777296806 | 13.89° C | 73% | 997.5 hPa | 0 mm | - | 375 W/m² | - |
| 1777296501 | 13.33° C | 74% | 997.4 hPa | 0 mm | - | 346 W/m² | - |
* Rain latest hour (hover to see other rain measurements)
** Current wind speed in m/s (hover to see current wind gust speed)